CheckWX is a tool to help pilots better visualize weather data.  It is not intended as a substitute for an official pre-flight weather briefing.

18:51:02 UTC

EPWR TAF
Copernicus Wrocław Airport
Wrocław, Poland
TAF EPWR 191730Z 1918/2018 22005KT CAVOK TEMPO 1918/1921 BKN040CB PROB30 TEMPO 1918/1920 TSRA PROB30 TEMPO 2008/2016 SCT040TCU

Jul-19@
18:00 UTC

Jul-19 @ 18:00 UTC

Jul-20@
18:00 UTC

Jul-20 @ 18:00 UTC

TAF EPWR 191730Z 1918/2018 22005KT CAVOK
Wind
  • 220° at 5 KTS
Conditions
No significant weather
Cloud Levels
  • No significant clouds

Jul-19@
18:00 UTC

Jul-19 @ 18:00 UTC

Jul-19@
20:00 UTC

Jul-19 @ 20:00 UTC

PROB30 TEMPO 1918/1920 TSRA

Temporary - 30% Likelihood

Temporary - 30% Likelihood during this time.

Conditions
Thunderstorm, Rain

Jul-19@
18:00 UTC

Jul-19 @ 18:00 UTC

Jul-19@
21:00 UTC

Jul-19 @ 21:00 UTC

TEMPO 1918/1921 BKN040CB

Temporary

Temporary Changes expected for less than half the time period

Cloud Levels
  • Broken at 4,000' AGL

Jul-20@
08:00 UTC

Jul-20 @ 08:00 UTC

Jul-20@
16:00 UTC

Jul-20 @ 16:00 UTC

PROB30 TEMPO 2008/2016 SCT040TCU

Temporary - 30% Likelihood

Temporary - 30% Likelihood during this time.

Cloud Levels
  • Scattered at 4,000' AGL